Time;durP1;ratioP1;P1;durP2;ratioP2;P2;SDS_P1;SDS_P2;PMS_P1;PMS_P2;Temp;Humidity;BMP_temperature;BMP_pressure;BME280_temperature;BME280_humidity;BME280_pressure;Samples;Min_cycle;Max_cycle;Signal;HPM_P1;HPM_P2
2023/05/27 00:01:47;;;;;;;10.63;6.47;;;17.80;57.00;;;;;;5018858;28;20189;-88
2023/05/27 00:04:13;;;;;;;10.87;7.03;;;17.80;56.80;;;;;;5018136;28;20179;-87
2023/05/27 00:06:38;;;;;;;9.20;6.40;;;17.70;56.90;;;;;;5020610;28;20202;-89
2023/05/27 00:09:04;;;;;;;11.30;7.00;;;17.70;57.10;;;;;;5028620;28;20189;-88
2023/05/27 00:11:30;;;;;;;10.15;6.88;;;17.70;57.00;;;;;;5021294;28;20229;-88
2023/05/27 00:13:55;;;;;;;10.60;6.63;;;17.70;57.80;;;;;;5019343;28;20177;-87
2023/05/27 00:16:21;;;;;;;8.63;6.20;;;17.70;56.90;;;;;;5022079;28;20205;-89
2023/05/27 00:18:48;;;;;;;12.40;7.20;;;17.60;57.20;;;;;;5021236;28;20195;-88
2023/05/27 00:21:14;;;;;;;7.97;6.57;;;17.50;57.20;;;;;;5019488;28;20222;-88
2023/05/27 00:23:39;;;;;;;12.17;7.23;;;17.40;57.50;;;;;;5018762;28;20671;-88
2023/05/27 00:26:05;;;;;;;13.50;7.20;;;17.30;57.60;;;;;;5020172;28;20193;-88
2023/05/27 00:28:31;;;;;;;11.83;7.03;;;17.30;57.80;;;;;;5018529;28;20191;-90
2023/05/27 00:30:57;;;;;;;11.37;7.00;;;17.10;58.60;;;;;;5019573;28;20192;-88
2023/05/27 00:33:23;;;;;;;8.13;6.37;;;17.10;58.40;;;;;;5020190;28;20190;-89
2023/05/27 00:35:49;;;;;;;10.33;6.83;;;17.10;58.60;;;;;;5018233;28;20213;-88
2023/05/27 00:38:14;;;;;;;10.90;6.50;;;17.10;58.40;;;;;;5027816;28;20177;-87
2023/05/27 00:40:40;;;;;;;12.10;7.13;;;17.10;58.30;;;;;;5033354;28;20248;-89
2023/05/27 00:43:06;;;;;;;12.23;6.63;;;17.00;58.60;;;;;;5036346;28;20300;-88
2023/05/27 00:45:32;;;;;;;10.67;6.77;;;17.00;58.90;;;;;;5031793;28;20217;-89
2023/05/27 00:48:01;;;;;;;9.27;7.33;;;17.10;59.00;;;;;;5037700;28;20174;-88
2023/05/27 00:50:27;;;;;;;10.13;6.90;;;17.10;58.60;;;;;;5017695;28;20186;-88
2023/05/27 00:52:56;;;;;;;10.37;6.87;;;17.00;58.80;;;;;;5019061;28;20192;-88
2023/05/27 00:55:23;;;;;;;9.27;6.33;;;17.10;59.10;;;;;;5017306;28;20695;-88
2023/05/27 00:57:49;;;;;;;11.70;6.47;;;17.00;59.40;;;;;;5018621;28;20196;-87
2023/05/27 01:00:15;;;;;;;17.07;8.10;;;16.80;60.10;;;;;;5000150;28;20726;-87
2023/05/27 01:02:42;;;;;;;10.67;6.73;;;16.80;59.80;;;;;;4996689;28;20206;-88
2023/05/27 01:05:12;;;;;;;8.87;6.70;;;16.80;59.80;;;;;;4996927;28;20204;-87
2023/05/27 01:07:50;;;;;;;9.73;6.53;;;16.90;59.70;;;;;;4998961;28;20815;-89
2023/05/27 01:10:28;;;;;;;9.67;6.40;;;16.80;59.40;;;;;;5036445;28;20704;-88
2023/05/27 01:13:10;;;;;;;8.33;5.93;;;16.90;59.50;;;;;;5036512;28;20176;-89
2023/05/27 01:15:37;;;;;;;8.40;6.63;;;16.80;59.40;;;;;;5016013;28;20244;-89
2023/05/27 01:18:03;;;;;;;13.23;6.97;;;16.90;59.20;;;;;;5017422;28;20181;-88
2023/05/27 01:20:30;;;;;;;10.07;6.63;;;16.80;59.50;;;;;;5017232;28;20214;-88
2023/05/27 01:22:59;;;;;;;12.17;6.50;;;16.80;59.40;;;;;;5013576;28;20186;-87
2023/05/27 01:25:25;;;;;;;8.53;6.00;;;16.80;59.50;;;;;;4998565;28;20198;-87
2023/05/27 01:27:52;;;;;;;9.00;6.30;;;16.70;58.70;;;;;;4997754;28;20258;-89
2023/05/27 01:30:19;;;;;;;11.03;6.60;;;16.70;59.10;;;;;;4998654;28;20214;-87
2023/05/27 01:32:58;;;;;;;11.07;6.93;;;16.60;59.10;;;;;;5015951;28;20192;-88
2023/05/27 01:35:51;;;;;;;12.40;6.60;;;16.70;58.70;;;;;;4999580;28;20218;-90
2023/05/27 01:38:19;;;;;;;10.63;6.40;;;16.50;59.00;;;;;;4998593;28;20186;-88
2023/05/27 01:40:47;;;;;;;10.23;6.17;;;16.40;59.50;;;;;;4997443;28;20588;-88
2023/05/27 01:43:14;;;;;;;10.93;6.80;;;16.40;59.50;;;;;;4998646;28;20189;-87
2023/05/27 01:45:41;;;;;;;8.73;6.80;;;16.20;59.30;;;;;;5009874;28;20277;-87
2023/05/27 01:48:09;;;;;;;8.63;6.37;;;16.20;59.60;;;;;;4995809;28;20209;-89
2023/05/27 01:50:35;;;;;;;8.57;6.10;;;16.00;59.80;;;;;;5011664;28;20190;-88
2023/05/27 01:53:01;;;;;;;10.93;5.80;;;16.10;59.80;;;;;;5016510;28;20220;-88
2023/05/27 01:55:27;;;;;;;16.40;7.17;;;16.10;59.30;;;;;;5014728;28;20275;-89
2023/05/27 01:57:53;;;;;;;12.37;6.40;;;16.20;58.80;;;;;;5015478;28;20186;-89
2023/05/27 02:00:18;;;;;;;10.83;6.20;;;16.10;58.70;;;;;;5014542;28;20364;-89
2023/05/27 02:02:44;;;;;;;8.87;5.77;;;16.10;58.80;;;;;;5015214;28;20203;-88
2023/05/27 02:05:10;;;;;;;9.73;5.87;;;16.20;58.30;;;;;;5009646;28;20207;-88
2023/05/27 02:07:36;;;;;;;10.33;6.03;;;16.00;58.80;;;;;;4996455;28;20193;-88
2023/05/27 02:10:02;;;;;;;10.83;5.77;;;16.00;59.10;;;;;;5030783;28;20189;-88
2023/05/27 02:12:28;;;;;;;9.93;6.37;;;16.00;59.00;;;;;;5019543;28;20201;-88
2023/05/27 02:14:53;;;;;;;10.47;5.77;;;15.90;59.00;;;;;;5017345;28;20212;-88
2023/05/27 02:17:19;;;;;;;10.17;6.40;;;15.90;59.00;;;;;;5018000;28;20177;-88
2023/05/27 02:19:45;;;;;;;7.10;5.37;;;15.80;59.40;;;;;;5018531;28;20257;-88
2023/05/27 02:22:10;;;;;;;9.50;6.00;;;15.80;59.80;;;;;;5015957;28;20762;-87
2023/05/27 02:24:36;;;;;;;11.53;6.23;;;15.80;59.00;;;;;;5017814;28;20637;-89
2023/05/27 02:27:02;;;;;;;9.67;5.83;;;15.80;59.10;;;;;;5018097;28;20186;-88
2023/05/27 02:29:27;;;;;;;12.27;6.50;;;15.80;58.90;;;;;;5017454;28;20185;-87
2023/05/27 02:31:53;;;;;;;9.63;5.90;;;15.80;58.90;;;;;;5017340;28;20674;-88
2023/05/27 02:34:19;;;;;;;8.97;6.30;;;15.80;58.70;;;;;;5018134;28;20184;-88
2023/05/27 02:36:44;;;;;;;11.60;5.97;;;15.80;58.80;;;;;;5017768;28;20204;-88
2023/05/27 02:39:10;;;;;;;8.70;6.03;;;15.70;59.10;;;;;;5006109;28;20301;-87
2023/05/27 02:41:36;;;;;;;9.90;5.77;;;15.70;59.20;;;;;;5016196;28;20174;-88
2023/05/27 02:44:02;;;;;;;13.20;6.37;;;15.70;59.00;;;;;;5012005;28;20659;-88
2023/05/27 02:46:28;;;;;;;10.20;6.00;;;15.70;58.90;;;;;;4994337;28;20246;-87
2023/05/27 02:48:53;;;;;;;9.23;6.13;;;15.70;58.70;;;;;;4996382;28;20217;-87
2023/05/27 02:51:20;;;;;;;10.90;6.40;;;15.70;58.40;;;;;;4996905;28;20687;-87
2023/05/27 02:53:46;;;;;;;10.43;5.93;;;15.70;58.40;;;;;;4997222;28;20188;-89
2023/05/27 02:56:11;;;;;;;8.23;6.40;;;15.80;58.30;;;;;;4995841;28;20739;-88
2023/05/27 02:58:37;;;;;;;10.90;6.10;;;15.80;58.20;;;;;;4996199;28;20636;-88
2023/05/27 03:01:04;;;;;;;8.90;5.93;;;15.80;58.20;;;;;;4996083;28;20229;-88
2023/05/27 03:03:30;;;;;;;8.30;5.60;;;15.80;58.40;;;;;;4996929;28;20239;-86
2023/05/27 03:05:56;;;;;;;9.63;6.20;;;15.70;58.60;;;;;;4995884;28;20194;-88
2023/05/27 03:08:21;;;;;;;10.60;6.27;;;15.60;59.30;;;;;;5008578;28;20185;-86
2023/05/27 03:10:47;;;;;;;13.73;6.50;;;15.60;59.20;;;;;;5015699;28;20177;-86
2023/05/27 03:13:13;;;;;;;12.53;6.50;;;15.50;59.70;;;;;;5017541;28;20209;-88
2023/05/27 03:15:39;;;;;;;8.63;5.50;;;15.50;59.80;;;;;;5017718;28;20228;-88
2023/05/27 03:18:05;;;;;;;10.10;5.47;;;15.30;61.00;;;;;;5018454;28;20235;-88
2023/05/27 03:20:30;;;;;;;9.43;5.90;;;15.40;60.10;;;;;;5016639;28;20278;-87
2023/05/27 03:22:56;;;;;;;9.03;5.87;;;15.30;60.40;;;;;;5017148;28;20178;-86
2023/05/27 03:25:23;;;;;;;9.53;6.13;;;15.40;60.20;;;;;;5016247;28;20272;-87
2023/05/27 03:27:49;;;;;;;10.07;5.33;;;15.50;59.60;;;;;;4998045;28;20209;-86
2023/05/27 03:30:15;;;;;;;8.90;5.53;;;15.50;59.80;;;;;;4998811;28;20269;-88
2023/05/27 03:32:40;;;;;;;10.63;5.70;;;15.30;60.00;;;;;;4997523;28;20198;-89
2023/05/27 03:35:06;;;;;;;7.80;5.60;;;15.20;60.30;;;;;;4997078;28;20205;-87
2023/05/27 03:37:32;;;;;;;8.77;5.60;;;15.10;60.90;;;;;;5012634;28;20189;-87
2023/05/27 03:39:57;;;;;;;10.33;5.70;;;15.10;60.90;;;;;;4995673;28;20300;-88
2023/05/27 03:42:23;;;;;;;12.93;6.23;;;15.20;60.40;;;;;;4995191;28;20551;-87
2023/05/27 03:44:49;;;;;;;9.97;5.23;;;15.20;60.50;;;;;;4994960;28;20187;-89
2023/05/27 03:47:17;;;;;;;10.87;6.27;;;15.20;60.30;;;;;;4996019;28;20679;-87
2023/05/27 03:49:43;;;;;;;11.80;5.97;;;15.20;60.40;;;;;;4995577;28;20229;-87
2023/05/27 03:52:09;;;;;;;8.90;6.07;;;15.20;60.00;;;;;;4994140;28;20179;-88
2023/05/27 03:54:34;;;;;;;10.07;6.03;;;15.30;59.80;;;;;;4993949;28;20237;-88
2023/05/27 03:57:01;;;;;;;13.53;5.87;;;15.40;59.60;;;;;;4995890;28;20186;-88
2023/05/27 03:59:26;;;;;;;7.63;5.40;;;15.40;59.50;;;;;;4996966;28;20196;-87
2023/05/27 04:01:52;;;;;;;9.20;5.70;;;15.40;59.00;;;;;;5014220;28;20189;-87
2023/05/27 04:04:18;;;;;;;7.87;5.10;;;15.50;59.00;;;;;;5011573;28;20197;-87
2023/05/27 04:06:44;;;;;;;9.03;6.03;;;15.50;58.80;;;;;;5013777;28;20700;-89
2023/05/27 04:09:09;;;;;;;9.17;5.90;;;15.40;58.90;;;;;;5026606;28;20189;-88
2023/05/27 04:11:35;;;;;;;9.23;5.03;;;15.40;58.70;;;;;;5035244;28;20186;-87
2023/05/27 04:14:01;;;;;;;8.60;5.10;;;15.30;59.30;;;;;;5030441;28;20237;-89
2023/05/27 04:16:26;;;;;;;9.27;5.77;;;15.30;59.40;;;;;;5013415;28;20198;-89
2023/05/27 04:18:52;;;;;;;11.50;5.73;;;15.20;59.40;;;;;;5015893;28;20172;-91
2023/05/27 04:21:18;;;;;;;13.20;5.50;;;15.20;59.50;;;;;;5016021;28;20219;-86
2023/05/27 04:23:44;;;;;;;9.03;5.90;;;15.10;59.60;;;;;;5032377;28;20191;-88
2023/05/27 04:26:10;;;;;;;11.57;5.67;;;15.10;59.90;;;;;;5021815;28;20201;-89
2023/05/27 04:28:36;;;;;;;8.77;6.07;;;15.00;60.50;;;;;;5017863;28;20213;-87
2023/05/27 04:31:02;;;;;;;9.00;5.77;;;14.80;61.10;;;;;;5008856;28;20213;-89
2023/05/27 04:33:27;;;;;;;7.73;5.87;;;14.80;60.80;;;;;;5016455;28;20194;-88
2023/05/27 04:35:55;;;;;;;12.20;5.80;;;14.90;61.00;;;;;;5018015;28;20220;-87
2023/05/27 04:38:21;;;;;;;9.37;5.93;;;14.70;61.40;;;;;;5017281;28;20197;-88
2023/05/27 04:40:54;;;;;;;9.43;5.83;;;14.70;61.80;;;;;;5016521;28;20216;-87
2023/05/27 04:43:20;;;;;;;9.53;5.90;;;14.70;61.70;;;;;;5018224;28;20173;-89
2023/05/27 04:45:46;;;;;;;10.13;6.03;;;14.80;61.70;;;;;;5017410;28;20220;-87
2023/05/27 04:48:12;;;;;;;10.03;6.57;;;14.80;61.60;;;;;;5017967;28;20196;-88
2023/05/27 04:50:40;;;;;;;13.43;6.73;;;14.90;61.80;;;;;;5015847;28;20213;-88
2023/05/27 04:53:06;;;;;;;8.23;6.33;;;14.80;61.40;;;;;;5018155;28;20192;-89
2023/05/27 04:55:32;;;;;;;9.40;5.47;;;14.70;61.90;;;;;;5017018;28;20231;-88
2023/05/27 04:57:59;;;;;;;11.57;6.07;;;14.60;62.10;;;;;;5014886;28;20189;-88
2023/05/27 05:00:49;;;;;;;12.97;6.70;;;14.60;61.80;;;;;;5007802;28;20753;-88
2023/05/27 05:03:36;;;;;;;10.87;6.43;;;14.60;61.50;;;;;;5017219;28;20209;-88
2023/05/27 05:06:03;;;;;;;10.97;6.20;;;14.60;61.40;;;;;;5017964;28;20201;-87
2023/05/27 05:08:28;;;;;;;9.13;5.30;;;14.70;62.10;;;;;;5018134;28;20270;-87
2023/05/27 05:10:54;;;;;;;12.20;5.97;;;14.60;62.10;;;;;;5012716;28;20223;-88
2023/05/27 05:13:20;;;;;;;10.33;6.10;;;14.60;61.60;;;;;;4998286;28;20186;-88
2023/05/27 05:15:45;;;;;;;11.53;5.70;;;14.60;61.90;;;;;;4996493;28;20206;-87
2023/05/27 05:18:12;;;;;;;10.13;5.43;;;14.60;62.30;;;;;;4999500;28;20219;-89
2023/05/27 05:20:37;;;;;;;8.13;5.37;;;14.60;61.80;;;;;;4997845;28;20220;-88
2023/05/27 05:23:03;;;;;;;11.07;5.60;;;14.70;61.30;;;;;;5013495;28;20272;-88
2023/05/27 05:25:30;;;;;;;8.00;5.23;;;14.60;61.10;;;;;;4999265;28;20209;-89
2023/05/27 05:27:56;;;;;;;15.27;6.47;;;14.70;62.10;;;;;;5000027;28;20190;-88
2023/05/27 05:30:22;;;;;;;13.03;6.20;;;14.80;61.20;;;;;;4998495;28;20268;-88
2023/05/27 05:32:48;;;;;;;11.53;5.20;;;14.90;60.70;;;;;;4999224;28;20189;-88
2023/05/27 05:35:13;;;;;;;9.20;5.87;;;14.90;60.40;;;;;;4998704;28;20865;-88
2023/05/27 05:37:39;;;;;;;9.43;5.53;;;15.00;60.20;;;;;;4997452;28;20533;-87
2023/05/27 05:40:05;;;;;;;7.80;5.30;;;15.10;60.40;;;;;;5004743;28;20206;-87
2023/05/27 05:42:31;;;;;;;12.43;5.37;;;15.20;59.10;;;;;;5009159;28;20178;-87
2023/05/27 05:44:57;;;;;;;8.37;5.30;;;15.10;59.90;;;;;;5000010;28;20343;-88
2023/05/27 05:47:22;;;;;;;9.50;5.20;;;15.00;60.40;;;;;;4997930;28;20318;-87
2023/05/27 05:49:48;;;;;;;11.97;5.77;;;15.10;59.40;;;;;;4999334;28;20191;-87
2023/05/27 05:52:14;;;;;;;10.80;4.83;;;15.10;58.80;;;;;;5007487;28;20295;-87
2023/05/27 05:54:39;;;;;;;9.37;5.80;;;15.20;59.60;;;;;;5018421;28;20191;-89
2023/05/27 05:57:05;;;;;;;10.97;5.23;;;15.30;58.70;;;;;;5010663;28;20210;-88
2023/05/27 05:59:31;;;;;;;9.67;4.83;;;15.30;58.60;;;;;;5019710;28;20212;-89
2023/05/27 06:01:57;;;;;;;9.90;5.13;;;15.30;58.20;;;;;;5018177;28;20273;-90
2023/05/27 06:04:22;;;;;;;11.83;5.37;;;15.50;57.00;;;;;;5011770;28;20189;-89
2023/05/27 06:06:48;;;;;;;11.27;5.17;;;15.60;56.30;;;;;;4998588;28;20224;-88
2023/05/27 06:09:14;;;;;;;8.83;4.50;;;15.70;56.30;;;;;;5020339;28;20189;-90
2023/05/27 06:11:40;;;;;;;11.33;5.50;;;15.80;55.40;;;;;;5037278;28;20181;-88
2023/05/27 06:14:06;;;;;;;9.00;5.60;;;15.90;54.80;;;;;;5036209;28;20204;-88
2023/05/27 06:16:33;;;;;;;11.20;5.53;;;16.00;53.80;;;;;;5022294;28;20243;-90
2023/05/27 06:18:58;;;;;;;10.37;5.37;;;15.90;53.90;;;;;;5017151;28;20193;-89
2023/05/27 06:21:24;;;;;;;7.57;4.90;;;16.00;54.20;;;;;;5018673;28;20590;-88
2023/05/27 06:23:49;;;;;;;9.80;5.27;;;16.10;54.70;;;;;;5014906;28;20224;-89
2023/05/27 06:26:15;;;;;;;9.47;5.47;;;16.20;53.50;;;;;;5019270;28;20201;-89
2023/05/27 06:28:41;;;;;;;8.60;5.80;;;16.30;53.60;;;;;;5019738;28;20179;-89
2023/05/27 06:31:06;;;;;;;8.97;5.50;;;16.40;53.00;;;;;;5017672;28;20248;-89
2023/05/27 06:33:32;;;;;;;11.23;5.47;;;16.30;52.50;;;;;;5017569;28;20678;-89
2023/05/27 06:35:57;;;;;;;10.43;5.20;;;16.30;51.90;;;;;;5016241;28;20288;-88
2023/05/27 06:38:23;;;;;;;15.90;5.53;;;16.30;51.80;;;;;;5017871;28;20188;-88
2023/05/27 06:40:49;;;;;;;11.80;5.33;;;16.40;52.20;;;;;;5015778;28;20706;-89
2023/05/27 06:43:15;;;;;;;10.80;5.67;;;16.40;53.00;;;;;;5022163;28;20228;-88
2023/05/27 06:45:40;;;;;;;11.03;5.63;;;16.50;52.90;;;;;;5020724;28;20297;-88
2023/05/27 06:48:07;;;;;;;9.13;5.63;;;16.70;51.80;;;;;;5035814;28;20173;-89
2023/05/27 06:50:33;;;;;;;12.17;5.77;;;16.80;51.30;;;;;;5015518;28;20181;-89
2023/05/27 06:52:59;;;;;;;11.33;5.50;;;17.00;51.50;;;;;;5016376;28;20664;-88
2023/05/27 06:55:24;;;;;;;9.70;6.50;;;17.20;51.20;;;;;;5019716;28;20257;-89
2023/05/27 06:57:50;;;;;;;8.83;5.97;;;17.20;49.80;;;;;;5024768;28;20643;-88
2023/05/27 07:00:16;;;;;;;9.70;5.47;;;17.10;49.90;;;;;;5017732;28;20233;-88
2023/05/27 07:02:41;;;;;;;11.20;6.37;;;17.20;50.00;;;;;;5022516;28;20256;-88
2023/05/27 07:05:07;;;;;;;10.33;6.00;;;17.20;49.50;;;;;;5021727;28;20214;-88
2023/05/27 07:07:33;;;;;;;9.27;5.33;;;17.30;49.00;;;;;;5019116;28;20708;-89
2023/05/27 07:09:58;;;;;;;9.77;5.37;;;17.30;49.30;;;;;;5014359;28;20192;-88
2023/05/27 07:12:24;;;;;;;9.13;5.37;;;17.20;49.60;;;;;;5033571;28;20236;-89
2023/05/27 07:14:50;;;;;;;12.50;5.50;;;17.30;49.30;;;;;;5013817;28;20284;-86
2023/05/27 07:17:15;;;;;;;11.07;5.87;;;17.20;50.10;;;;;;5020062;28;20234;-89
2023/05/27 07:19:41;;;;;;;10.40;5.93;;;17.40;49.60;;;;;;5014365;28;20270;-89
2023/05/27 07:22:07;;;;;;;7.27;5.37;;;17.30;49.50;;;;;;5013471;28;20184;-89
2023/05/27 07:24:32;;;;;;;10.73;5.70;;;17.30;50.10;;;;;;5028198;28;20187;-89
2023/05/27 07:26:58;;;;;;;9.87;5.20;;;17.40;49.70;;;;;;5023231;28;20205;-88
2023/05/27 07:29:23;;;;;;;9.37;5.63;;;17.60;50.00;;;;;;5023506;28;20302;-89
2023/05/27 07:31:49;;;;;;;10.17;5.50;;;17.70;48.90;;;;;;5023621;28;20223;-89
2023/05/27 07:34:15;;;;;;;11.57;5.67;;;17.60;49.20;;;;;;5012492;28;20217;-90
2023/05/27 07:36:40;;;;;;;11.90;6.37;;;17.70;48.40;;;;;;5013044;28;20447;-90
2023/05/27 07:39:06;;;;;;;9.43;5.20;;;17.60;48.90;;;;;;5018165;28;20255;-88
2023/05/27 07:41:32;;;;;;;11.20;5.50;;;17.80;48.50;;;;;;5014126;28;20244;-88
2023/05/27 07:43:58;;;;;;;12.23;6.13;;;18.00;47.80;;;;;;5014622;28;20640;-88
2023/05/27 07:46:24;;;;;;;9.57;5.80;;;17.90;48.40;;;;;;5020039;28;20203;-89
2023/05/27 07:48:49;;;;;;;10.93;6.00;;;17.90;49.10;;;;;;5029315;28;20197;-90
2023/05/27 07:51:15;;;;;;;9.03;6.03;;;17.90;48.20;;;;;;5031571;28;20185;-90
2023/05/27 07:53:41;;;;;;;12.10;5.40;;;17.90;48.60;;;;;;5036130;28;20203;-92
2023/05/27 07:56:07;;;;;;;10.30;6.37;;;18.20;48.50;;;;;;5036870;28;20216;-90
2023/05/27 07:58:32;;;;;;;9.20;5.97;;;18.40;48.20;;;;;;5035860;28;20295;-91
2023/05/27 08:00:58;;;;;;;9.60;5.75;;;18.60;46.40;;;;;;5024814;28;20698;-88
2023/05/27 08:03:24;;;;;;;9.30;5.82;;;18.60;46.70;;;;;;5020475;28;20203;-90
2023/05/27 08:05:49;;;;;;;9.98;5.70;;;18.70;47.20;;;;;;5019898;28;20710;-89
2023/05/27 08:08:15;;;;;;;11.00;6.30;;;18.80;47.30;;;;;;5002985;28;20490;-89
2023/05/27 08:10:41;;;;;;;7.72;5.53;;;19.00;46.00;;;;;;5000039;28;20401;-88
2023/05/27 08:13:06;;;;;;;9.25;6.03;;;18.90;46.80;;;;;;5000664;28;20274;-89
2023/05/27 08:15:32;;;;;;;10.45;5.68;;;19.10;46.30;;;;;;5000064;28;20240;-89
2023/05/27 08:17:58;;;;;;;9.90;6.22;;;19.10;46.20;;;;;;5001967;28;20664;-88
2023/05/27 08:20:23;;;;;;;10.60;5.97;;;19.20;45.60;;;;;;5003102;28;20212;-89
2023/05/27 08:22:49;;;;;;;11.23;5.82;;;19.30;45.70;;;;;;5015092;28;20236;-89
2023/05/27 08:25:16;;;;;;;8.85;5.85;;;19.20;46.40;;;;;;5003209;28;20250;-90
2023/05/27 08:27:50;;;;;;;9.35;6.25;;;19.40;45.20;;;;;;5000391;28;20197;-90
2023/05/27 08:30:17;;;;;;;9.20;5.82;;;19.40;45.30;;;;;;4998829;28;20274;-88
2023/05/27 08:32:42;;;;;;;14.93;6.43;;;19.40;44.90;;;;;;5006510;28;20416;-89
2023/05/27 08:35:10;;;;;;;8.75;6.38;;;19.60;44.90;;;;;;5000419;28;20727;-89
2023/05/27 08:37:37;;;;;;;7.38;6.35;;;19.60;44.70;;;;;;5000123;28;20189;-89
2023/05/27 08:40:06;;;;;;;7.53;6.13;;;19.60;44.40;;;;;;4997120;28;20635;-89
2023/05/27 08:42:33;;;;;;;24.63;7.75;;;19.70;44.70;;;;;;5001160;28;20446;-88
2023/05/27 08:44:59;;;;;;;10.73;6.35;;;20.00;44.20;;;;;;5005356;28;20298;-88
2023/05/27 08:47:28;;;;;;;9.55;6.78;;;20.20;43.50;;;;;;5010026;28;20620;-90
2023/05/27 08:49:54;;;;;;;9.95;6.40;;;20.20;43.30;;;;;;5021006;28;20189;-89
2023/05/27 08:52:22;;;;;;;8.73;6.45;;;20.20;43.30;;;;;;5020224;28;20214;-90
2023/05/27 08:54:49;;;;;;;10.90;7.05;;;20.20;44.20;;;;;;5019304;28;20205;-89
2023/05/27 08:57:19;;;;;;;9.60;6.22;;;20.30;42.80;;;;;;5019258;28;20186;-89
2023/05/27 08:59:45;;;;;;;16.10;7.15;;;20.40;43.40;;;;;;5014270;28;20293;-89
2023/05/27 09:02:12;;;;;;;9.13;6.25;;;20.40;43.30;;;;;;4999575;28;20233;-89
2023/05/27 09:04:39;;;;;;;9.90;6.18;;;20.50;43.50;;;;;;5011138;28;20192;-90
2023/05/27 09:07:06;;;;;;;8.05;6.70;;;20.80;42.00;;;;;;5019246;28;20177;-90
2023/05/27 09:09:31;;;;;;;9.05;7.13;;;20.80;42.20;;;;;;5032762;28;20177;-89
2023/05/27 09:12:02;;;;;;;9.43;6.93;;;20.80;42.70;;;;;;5036412;28;20227;-90
2023/05/27 09:14:30;;;;;;;10.00;6.93;;;21.00;42.70;;;;;;5037530;28;20180;-89
2023/05/27 09:16:56;;;;;;;10.77;6.55;;;21.10;42.00;;;;;;5030249;28;20189;-89
2023/05/27 09:19:22;;;;;;;9.23;7.28;;;21.10;41.60;;;;;;5018339;28;20171;-90
2023/05/27 09:21:52;;;;;;;8.48;6.80;;;21.30;41.40;;;;;;5017634;28;20211;-88
2023/05/27 09:24:18;;;;;;;12.80;7.22;;;21.40;41.00;;;;;;5016879;28;20174;-89
2023/05/27 09:26:44;;;;;;;14.00;8.10;;;21.50;41.30;;;;;;5013380;28;20276;-89
2023/05/27 09:29:10;;;;;;;12.45;7.40;;;21.80;40.70;;;;;;5013783;28;20187;-88
2023/05/27 09:31:42;;;;;;;10.15;6.78;;;21.80;40.20;;;;;;5018227;28;20200;-88
2023/05/27 09:34:12;;;;;;;11.30;6.90;;;22.00;39.70;;;;;;5017991;28;20283;-89
2023/05/27 09:36:46;;;;;;;9.52;6.82;;;22.20;39.70;;;;;;5018402;28;20237;-89
2023/05/27 09:39:14;;;;;;;12.57;7.18;;;22.10;39.80;;;;;;5018874;28;20194;-88
2023/05/27 09:41:40;;;;;;;11.10;7.43;;;22.20;39.50;;;;;;5008584;28;20270;-89
2023/05/27 09:44:07;;;;;;;9.25;7.22;;;22.20;39.90;;;;;;5017587;28;20658;-89
2023/05/27 09:46:33;;;;;;;9.98;6.45;;;22.20;39.60;;;;;;5019112;28;20203;-89
2023/05/27 09:49:00;;;;;;;10.48;7.72;;;22.50;39.50;;;;;;5020045;28;20187;-89
2023/05/27 09:51:26;;;;;;;9.73;7.53;;;22.60;39.30;;;;;;5018918;28;20628;-89
2023/05/27 09:53:57;;;;;;;8.80;7.85;;;22.60;38.50;;;;;;5019379;28;20199;-87
2023/05/27 09:56:27;;;;;;;11.38;8.15;;;22.60;39.60;;;;;;5014883;28;20401;-88
2023/05/27 09:58:57;;;;;;;11.05;7.75;;;22.80;39.00;;;;;;4998753;28;20185;-89
2023/05/27 10:01:30;;;;;;;14.23;7.95;;;22.70;39.20;;;;;;4998242;28;20687;-88
2023/05/27 10:03:56;;;;;;;11.10;7.72;;;22.60;39.40;;;;;;4999475;28;20224;-88
2023/05/27 10:06:29;;;;;;;10.90;7.95;;;22.70;39.30;;;;;;4999615;28;20259;-88
2023/05/27 10:08:55;;;;;;;9.23;7.82;;;22.80;38.70;;;;;;5014707;28;20520;-89
2023/05/27 10:11:22;;;;;;;9.23;7.68;;;22.80;39.20;;;;;;5036927;28;20181;-89
2023/05/27 10:13:48;;;;;;;10.35;7.88;;;23.00;38.80;;;;;;5018897;28;20189;-90
2023/05/27 10:16:21;;;;;;;12.57;8.63;;;23.40;38.00;;;;;;5006118;28;20214;-88
2023/05/27 10:18:52;;;;;;;10.57;8.15;;;23.80;37.70;;;;;;4996766;28;20190;-88
2023/05/27 10:21:20;;;;;;;11.23;7.93;;;23.80;36.80;;;;;;4998495;28;20213;-89
2023/05/27 10:23:56;;;;;;;8.57;7.68;;;23.90;37.30;;;;;;5016324;28;20327;-90
2023/05/27 10:26:42;;;;;;;12.70;8.40;;;23.70;37.60;;;;;;5009629;28;20190;-88
2023/05/27 10:29:09;;;;;;;14.55;8.45;;;23.70;37.70;;;;;;4997741;28;20238;-90
2023/05/27 10:31:38;;;;;;;13.05;8.43;;;24.10;37.30;;;;;;4999621;28;20185;-88
2023/05/27 10:34:07;;;;;;;12.98;8.63;;;24.50;36.80;;;;;;5014806;28;20182;-90
2023/05/27 10:36:33;;;;;;;12.25;9.10;;;24.40;36.60;;;;;;5014619;28;20229;-88
2023/05/27 10:39:01;;;;;;;10.63;8.93;;;24.40;37.30;;;;;;5027042;28;20186;-89
2023/05/27 10:41:27;;;;;;;9.32;8.32;;;24.60;36.50;;;;;;5034817;28;20208;-90
2023/05/27 10:43:57;;;;;;;11.10;9.20;;;24.60;36.30;;;;;;5023346;28;20201;-90
2023/05/27 10:46:23;;;;;;;12.18;8.85;;;25.00;36.40;;;;;;5018063;28;20193;-89
2023/05/27 10:48:48;;;;;;;11.77;8.93;;;25.30;35.40;;;;;;5018945;28;20180;-90
2023/05/27 10:51:14;;;;;;;10.10;9.10;;;25.10;36.50;;;;;;5017760;28;20190;-89
2023/05/27 10:53:40;;;;;;;11.15;8.80;;;25.30;34.80;;;;;;5018891;28;20205;-89
2023/05/27 10:56:06;;;;;;;11.18;9.88;;;25.70;34.40;;;;;;5018759;28;20260;-89
2023/05/27 10:58:38;;;;;;;10.98;10.07;;;25.90;33.70;;;;;;5019634;28;20192;-87
2023/05/27 11:01:13;;;;;;;9.93;9.05;;;25.50;34.00;;;;;;5018336;28;20208;-89
2023/05/27 11:03:48;;;;;;;12.80;10.20;;;25.60;34.70;;;;;;5019122;28;20243;-90
2023/05/27 11:06:15;;;;;;;14.25;10.40;;;26.20;34.30;;;;;;5011416;28;20185;-88
2023/05/27 11:08:40;;;;;;;12.82;10.23;;;26.20;33.50;;;;;;5011028;28;20188;-90
2023/05/27 11:11:08;;;;;;;12.27;10.90;;;26.40;33.40;;;;;;5037322;28;20181;-89
2023/05/27 11:13:39;;;;;;;11.32;10.32;;;26.40;33.80;;;;;;5036636;28;20177;-90
2023/05/27 11:16:06;;;;;;;13.23;11.85;;;26.50;33.30;;;;;;5035617;28;20716;-89
2023/05/27 11:18:35;;;;;;;14.00;12.82;;;26.90;32.90;;;;;;5037788;28;20191;-90
2023/05/27 11:21:02;;;;;;;12.98;12.02;;;27.00;32.30;;;;;;5037418;28;20721;-90
2023/05/27 11:23:48;;;;;;;13.77;12.43;;;26.60;32.70;;;;;;5015521;28;20200;-89
2023/05/27 11:26:18;;;;;;;13.05;11.95;;;26.30;33.50;;;;;;5019445;28;20189;-88
2023/05/27 11:28:53;;;;;;;12.35;11.18;;;26.40;33.30;;;;;;5024850;28;20166;-89
2023/05/27 11:31:20;;;;;;;13.82;12.38;;;26.70;33.80;;;;;;5025627;28;20178;-91
2023/05/27 11:33:50;;;;;;;11.73;10.82;;;26.60;32.50;;;;;;5024713;28;20189;-89
2023/05/27 11:36:16;;;;;;;11.35;10.50;;;26.20;33.70;;;;;;5023790;28;20610;-88
2023/05/27 11:38:55;;;;;;;11.60;10.50;;;26.20;34.30;;;;;;5024581;28;20243;-89
2023/05/27 11:41:26;;;;;;;11.93;10.73;;;26.30;33.70;;;;;;5022586;28;20735;-88
2023/05/27 11:44:05;;;;;;;12.27;11.23;;;26.70;33.10;;;;;;5020919;28;20177;-89
2023/05/27 11:46:44;;;;;;;13.38;12.38;;;27.00;32.40;;;;;;5015421;28;20197;-90
2023/05/27 11:49:13;;;;;;;14.23;12.80;;;26.80;32.00;;;;;;5024056;28;20208;-89
2023/05/27 11:51:41;;;;;;;14.07;12.73;;;27.00;32.00;;;;;;5025129;28;20181;-89
2023/05/27 11:54:07;;;;;;;13.40;12.45;;;27.20;31.90;;;;;;5024497;28;20203;-89
2023/05/27 11:56:33;;;;;;;16.27;15.07;;;27.70;30.90;;;;;;5023594;28;20289;-91
2023/05/27 11:58:59;;;;;;;15.57;14.38;;;27.60;30.40;;;;;;5029138;28;20204;-89
2023/05/27 12:01:28;;;;;;;16.55;15.27;;;27.80;30.70;;;;;;5043500;28;20205;-90
2023/05/27 12:03:54;;;;;;;17.20;16.10;;;27.90;30.10;;;;;;5038327;28;20174;-89
2023/05/27 12:06:20;;;;;;;18.05;16.80;;;28.10;30.00;;;;;;5021667;28;20193;-88
2023/05/27 12:08:45;;;;;;;17.98;16.40;;;28.20;30.40;;;;;;5021311;28;20698;-88
2023/05/27 12:11:12;;;;;;;18.42;17.23;;;27.80;30.40;;;;;;5022829;28;20199;-87
2023/05/27 12:13:38;;;;;;;17.85;16.52;;;27.80;30.60;;;;;;5025353;28;20446;-89
2023/05/27 12:16:04;;;;;;;17.92;16.73;;;27.80;30.60;;;;;;5053532;22;20334;-88
2023/05/27 12:18:30;;;;;;;16.63;15.52;;;27.90;30.50;;;;;;5040857;28;20157;-88
2023/05/27 12:20:56;;;;;;;16.20;15.20;;;28.60;30.20;;;;;;5039915;28;20234;-87
2023/05/27 12:23:22;;;;;;;17.17;15.95;;;28.50;30.30;;;;;;5041945;28;20241;-88
2023/05/27 12:25:48;;;;;;;17.10;15.90;;;28.40;30.30;;;;;;5037568;28;20296;-90
2023/05/27 12:28:14;;;;;;;17.20;15.90;;;28.70;29.70;;;;;;5027053;28;20190;-90
2023/05/27 12:30:39;;;;;;;17.73;16.13;;;28.60;30.00;;;;;;5021394;28;20185;-89
2023/05/27 12:33:06;;;;;;;17.27;16.17;;;28.70;29.80;;;;;;5005066;28;20655;-88
2023/05/27 12:35:33;;;;;;;17.20;15.90;;;28.90;29.50;;;;;;5024989;28;20601;-84
2023/05/27 12:37:59;;;;;;;17.42;16.17;;;28.70;29.80;;;;;;5024575;28;20174;-88
2023/05/27 12:40:25;;;;;;;16.67;15.45;;;28.60;30.00;;;;;;5019558;28;20511;-87